sensor_id;sensor_type;location;lat;lon;timestamp;P1;durP1;ratioP1;P2;durP2;ratioP2
20114;SDS011;10218;42.874;25.320;2023-04-25T00:02:16;22.37;;;15.93;;
20114;SDS011;10218;42.874;25.320;2023-04-25T00:04:43;19.77;;;15.30;;
20114;SDS011;10218;42.874;25.320;2023-04-25T00:07:11;20.23;;;15.43;;
20114;SDS011;10218;42.874;25.320;2023-04-25T00:09:39;18.50;;;14.87;;
20114;SDS011;10218;42.874;25.320;2023-04-25T00:12:06;16.70;;;13.77;;
20114;SDS011;10218;42.874;25.320;2023-04-25T00:14:33;22.03;;;14.30;;
20114;SDS011;10218;42.874;25.320;2023-04-25T00:17:00;17.87;;;14.10;;
20114;SDS011;10218;42.874;25.320;2023-04-25T00:19:29;19.07;;;14.27;;
20114;SDS011;10218;42.874;25.320;2023-04-25T00:21:56;22.97;;;15.60;;
20114;SDS011;10218;42.874;25.320;2023-04-25T00:24:23;18.00;;;15.03;;
20114;SDS011;10218;42.874;25.320;2023-04-25T00:26:51;20.10;;;16.00;;
20114;SDS011;10218;42.874;25.320;2023-04-25T00:29:18;21.83;;;15.13;;
20114;SDS011;10218;42.874;25.320;2023-04-25T00:31:45;20.83;;;16.50;;
20114;SDS011;10218;42.874;25.320;2023-04-25T00:34:12;21.07;;;14.53;;
20114;SDS011;10218;42.874;25.320;2023-04-25T00:36:39;18.57;;;15.13;;
20114;SDS011;10218;42.874;25.320;2023-04-25T00:39:06;21.93;;;16.10;;
20114;SDS011;10218;42.874;25.320;2023-04-25T00:41:34;18.73;;;15.10;;
20114;SDS011;10218;42.874;25.320;2023-04-25T00:44:03;17.60;;;14.97;;
20114;SDS011;10218;42.874;25.320;2023-04-25T00:46:33;18.93;;;14.80;;
20114;SDS011;10218;42.874;25.320;2023-04-25T00:49:02;20.87;;;15.17;;
20114;SDS011;10218;42.874;25.320;2023-04-25T00:51:30;20.73;;;16.70;;
20114;SDS011;10218;42.874;25.320;2023-04-25T00:53:59;22.60;;;16.70;;
20114;SDS011;10218;42.874;25.320;2023-04-25T00:56:27;17.90;;;15.10;;
20114;SDS011;10218;42.874;25.320;2023-04-25T00:58:55;19.03;;;15.00;;
20114;SDS011;10218;42.874;25.320;2023-04-25T01:01:23;19.20;;;14.90;;
20114;SDS011;10218;42.874;25.320;2023-04-25T01:03:51;20.27;;;15.13;;
20114;SDS011;10218;42.874;25.320;2023-04-25T01:06:20;22.33;;;15.33;;
20114;SDS011;10218;42.874;25.320;2023-04-25T01:08:49;17.30;;;14.63;;
20114;SDS011;10218;42.874;25.320;2023-04-25T01:11:16;18.20;;;14.77;;
20114;SDS011;10218;42.874;25.320;2023-04-25T01:13:43;19.10;;;13.73;;
20114;SDS011;10218;42.874;25.320;2023-04-25T01:16:11;16.10;;;12.93;;
20114;SDS011;10218;42.874;25.320;2023-04-25T01:18:41;19.13;;;12.77;;
20114;SDS011;10218;42.874;25.320;2023-04-25T01:21:12;18.40;;;14.60;;
20114;SDS011;10218;42.874;25.320;2023-04-25T01:23:40;15.70;;;12.90;;
20114;SDS011;10218;42.874;25.320;2023-04-25T01:26:11;15.27;;;12.17;;
20114;SDS011;10218;42.874;25.320;2023-04-25T01:28:39;18.37;;;13.33;;
20114;SDS011;10218;42.874;25.320;2023-04-25T01:31:10;17.77;;;13.53;;
20114;SDS011;10218;42.874;25.320;2023-04-25T01:33:38;12.93;;;11.07;;
20114;SDS011;10218;42.874;25.320;2023-04-25T01:36:05;17.70;;;14.27;;
20114;SDS011;10218;42.874;25.320;2023-04-25T01:38:34;14.90;;;9.60;;
20114;SDS011;10218;42.874;25.320;2023-04-25T01:41:01;9.33;;;8.10;;
20114;SDS011;10218;42.874;25.320;2023-04-25T01:43:29;10.73;;;9.20;;
20114;SDS011;10218;42.874;25.320;2023-04-25T01:45:56;15.03;;;10.97;;
20114;SDS011;10218;42.874;25.320;2023-04-25T01:48:24;17.80;;;13.27;;
20114;SDS011;10218;42.874;25.320;2023-04-25T01:50:51;17.67;;;12.93;;
20114;SDS011;10218;42.874;25.320;2023-04-25T01:53:19;11.43;;;9.17;;
20114;SDS011;10218;42.874;25.320;2023-04-25T01:55:46;8.73;;;6.27;;
20114;SDS011;10218;42.874;25.320;2023-04-25T01:58:13;8.53;;;6.73;;
20114;SDS011;10218;42.874;25.320;2023-04-25T02:00:42;7.03;;;6.33;;
20114;SDS011;10218;42.874;25.320;2023-04-25T02:03:09;9.93;;;7.00;;
20114;SDS011;10218;42.874;25.320;2023-04-25T02:05:37;7.50;;;6.43;;
20114;SDS011;10218;42.874;25.320;2023-04-25T02:08:06;8.23;;;6.63;;
20114;SDS011;10218;42.874;25.320;2023-04-25T02:10:35;8.87;;;6.73;;
20114;SDS011;10218;42.874;25.320;2023-04-25T02:13:04;9.43;;;6.73;;
20114;SDS011;10218;42.874;25.320;2023-04-25T02:15:32;9.53;;;7.10;;
20114;SDS011;10218;42.874;25.320;2023-04-25T02:18:00;9.57;;;6.93;;
20114;SDS011;10218;42.874;25.320;2023-04-25T02:20:28;9.77;;;7.53;;
20114;SDS011;10218;42.874;25.320;2023-04-25T02:22:56;10.80;;;8.97;;
20114;SDS011;10218;42.874;25.320;2023-04-25T02:25:24;11.10;;;8.93;;
20114;SDS011;10218;42.874;25.320;2023-04-25T02:27:52;15.07;;;10.47;;
20114;SDS011;10218;42.874;25.320;2023-04-25T02:30:19;15.90;;;9.80;;
20114;SDS011;10218;42.874;25.320;2023-04-25T02:32:46;12.17;;;10.03;;
20114;SDS011;10218;42.874;25.320;2023-04-25T02:35:13;11.83;;;9.40;;
20114;SDS011;10218;42.874;25.320;2023-04-25T02:37:41;11.87;;;9.50;;
20114;SDS011;10218;42.874;25.320;2023-04-25T02:40:08;14.13;;;9.40;;
20114;SDS011;10218;42.874;25.320;2023-04-25T02:42:36;11.40;;;9.37;;
20114;SDS011;10218;42.874;25.320;2023-04-25T02:45:03;10.10;;;8.10;;
20114;SDS011;10218;42.874;25.320;2023-04-25T02:47:30;13.87;;;8.47;;
20114;SDS011;10218;42.874;25.320;2023-04-25T02:49:58;11.77;;;8.87;;
20114;SDS011;10218;42.874;25.320;2023-04-25T02:52:25;12.67;;;8.63;;
20114;SDS011;10218;42.874;25.320;2023-04-25T02:54:53;13.07;;;8.77;;
20114;SDS011;10218;42.874;25.320;2023-04-25T02:57:20;12.33;;;9.33;;
20114;SDS011;10218;42.874;25.320;2023-04-25T02:59:47;7.83;;;6.20;;
20114;SDS011;10218;42.874;25.320;2023-04-25T03:02:14;11.70;;;6.83;;
20114;SDS011;10218;42.874;25.320;2023-04-25T03:04:42;8.53;;;6.73;;
20114;SDS011;10218;42.874;25.320;2023-04-25T03:07:09;7.93;;;5.90;;
20114;SDS011;10218;42.874;25.320;2023-04-25T03:09:36;10.10;;;6.63;;
20114;SDS011;10218;42.874;25.320;2023-04-25T03:12:03;19.13;;;13.13;;
20114;SDS011;10218;42.874;25.320;2023-04-25T03:14:32;25.03;;;17.73;;
20114;SDS011;10218;42.874;25.320;2023-04-25T03:16:59;14.13;;;9.73;;
20114;SDS011;10218;42.874;25.320;2023-04-25T03:19:26;13.70;;;10.57;;
20114;SDS011;10218;42.874;25.320;2023-04-25T03:21:54;9.00;;;7.50;;
20114;SDS011;10218;42.874;25.320;2023-04-25T03:24:21;9.23;;;5.80;;
20114;SDS011;10218;42.874;25.320;2023-04-25T03:26:48;8.27;;;6.10;;
20114;SDS011;10218;42.874;25.320;2023-04-25T03:29:15;8.47;;;4.60;;
20114;SDS011;10218;42.874;25.320;2023-04-25T03:31:42;5.03;;;3.80;;
20114;SDS011;10218;42.874;25.320;2023-04-25T03:34:09;3.13;;;2.60;;
20114;SDS011;10218;42.874;25.320;2023-04-25T03:36:37;4.03;;;3.07;;
20114;SDS011;10218;42.874;25.320;2023-04-25T03:39:05;7.10;;;4.30;;
20114;SDS011;10218;42.874;25.320;2023-04-25T03:41:32;4.27;;;3.00;;
20114;SDS011;10218;42.874;25.320;2023-04-25T03:44:00;5.20;;;3.33;;
20114;SDS011;10218;42.874;25.320;2023-04-25T03:46:27;5.40;;;2.97;;
20114;SDS011;10218;42.874;25.320;2023-04-25T03:48:54;5.63;;;3.17;;
20114;SDS011;10218;42.874;25.320;2023-04-25T03:51:22;6.67;;;3.60;;
20114;SDS011;10218;42.874;25.320;2023-04-25T03:53:49;5.17;;;4.20;;
20114;SDS011;10218;42.874;25.320;2023-04-25T03:56:31;4.97;;;4.07;;
20114;SDS011;10218;42.874;25.320;2023-04-25T03:58:59;6.70;;;4.70;;
20114;SDS011;10218;42.874;25.320;2023-04-25T04:01:26;4.70;;;4.20;;
20114;SDS011;10218;42.874;25.320;2023-04-25T04:03:53;9.43;;;4.30;;
20114;SDS011;10218;42.874;25.320;2023-04-25T04:06:20;4.73;;;4.20;;
20114;SDS011;10218;42.874;25.320;2023-04-25T04:08:48;5.67;;;4.00;;
20114;SDS011;10218;42.874;25.320;2023-04-25T04:11:15;4.53;;;3.10;;
20114;SDS011;10218;42.874;25.320;2023-04-25T04:13:42;4.07;;;3.10;;
20114;SDS011;10218;42.874;25.320;2023-04-25T04:16:09;3.50;;;2.63;;
20114;SDS011;10218;42.874;25.320;2023-04-25T04:18:37;4.87;;;2.53;;
20114;SDS011;10218;42.874;25.320;2023-04-25T04:21:04;3.23;;;2.87;;
20114;SDS011;10218;42.874;25.320;2023-04-25T04:23:32;5.53;;;3.27;;
20114;SDS011;10218;42.874;25.320;2023-04-25T04:25:59;6.20;;;2.73;;
20114;SDS011;10218;42.874;25.320;2023-04-25T04:28:27;4.43;;;3.67;;
20114;SDS011;10218;42.874;25.320;2023-04-25T04:30:54;2.67;;;2.30;;
20114;SDS011;10218;42.874;25.320;2023-04-25T04:33:24;3.97;;;2.80;;
20114;SDS011;10218;42.874;25.320;2023-04-25T04:35:52;5.23;;;3.23;;
20114;SDS011;10218;42.874;25.320;2023-04-25T04:38:20;6.47;;;4.50;;
20114;SDS011;10218;42.874;25.320;2023-04-25T04:40:49;6.67;;;4.20;;
20114;SDS011;10218;42.874;25.320;2023-04-25T04:43:17;6.57;;;5.33;;
20114;SDS011;10218;42.874;25.320;2023-04-25T04:45:45;5.80;;;3.40;;
20114;SDS011;10218;42.874;25.320;2023-04-25T04:48:14;6.73;;;4.27;;
20114;SDS011;10218;42.874;25.320;2023-04-25T04:50:44;8.73;;;5.07;;
20114;SDS011;10218;42.874;25.320;2023-04-25T04:53:12;6.57;;;4.67;;
20114;SDS011;10218;42.874;25.320;2023-04-25T04:55:40;6.63;;;4.40;;
20114;SDS011;10218;42.874;25.320;2023-04-25T04:58:08;6.97;;;5.20;;
20114;SDS011;10218;42.874;25.320;2023-04-25T05:00:35;10.83;;;6.57;;
20114;SDS011;10218;42.874;25.320;2023-04-25T05:03:03;11.33;;;7.13;;
20114;SDS011;10218;42.874;25.320;2023-04-25T05:05:33;24.43;;;11.07;;
20114;SDS011;10218;42.874;25.320;2023-04-25T05:08:01;17.67;;;10.60;;
20114;SDS011;10218;42.874;25.320;2023-04-25T05:10:29;20.27;;;11.77;;
20114;SDS011;10218;42.874;25.320;2023-04-25T05:12:56;14.37;;;8.83;;
20114;SDS011;10218;42.874;25.320;2023-04-25T05:15:23;13.80;;;7.97;;
20114;SDS011;10218;42.874;25.320;2023-04-25T05:17:51;13.27;;;7.07;;
20114;SDS011;10218;42.874;25.320;2023-04-25T05:20:18;10.50;;;5.63;;
20114;SDS011;10218;42.874;25.320;2023-04-25T05:22:47;12.43;;;7.57;;
20114;SDS011;10218;42.874;25.320;2023-04-25T05:25:15;8.47;;;6.30;;
20114;SDS011;10218;42.874;25.320;2023-04-25T05:27:43;8.80;;;5.37;;
20114;SDS011;10218;42.874;25.320;2023-04-25T05:30:11;7.67;;;5.60;;
20114;SDS011;10218;42.874;25.320;2023-04-25T05:32:39;8.20;;;3.83;;
20114;SDS011;10218;42.874;25.320;2023-04-25T05:35:07;6.33;;;4.20;;
20114;SDS011;10218;42.874;25.320;2023-04-25T05:37:35;7.17;;;4.47;;
20114;SDS011;10218;42.874;25.320;2023-04-25T05:40:03;5.57;;;4.10;;
20114;SDS011;10218;42.874;25.320;2023-04-25T05:42:33;7.47;;;5.13;;
20114;SDS011;10218;42.874;25.320;2023-04-25T05:45:00;7.43;;;4.50;;
20114;SDS011;10218;42.874;25.320;2023-04-25T05:47:28;4.40;;;3.30;;
20114;SDS011;10218;42.874;25.320;2023-04-25T05:49:57;8.07;;;3.70;;
20114;SDS011;10218;42.874;25.320;2023-04-25T05:52:25;4.27;;;3.20;;
20114;SDS011;10218;42.874;25.320;2023-04-25T05:54:52;7.23;;;3.27;;
20114;SDS011;10218;42.874;25.320;2023-04-25T05:57:23;2.80;;;2.50;;
20114;SDS011;10218;42.874;25.320;2023-04-25T05:59:52;3.47;;;2.73;;
20114;SDS011;10218;42.874;25.320;2023-04-25T06:02:20;4.97;;;2.70;;
20114;SDS011;10218;42.874;25.320;2023-04-25T06:04:49;3.63;;;2.70;;
20114;SDS011;10218;42.874;25.320;2023-04-25T06:07:18;3.37;;;2.50;;
20114;SDS011;10218;42.874;25.320;2023-04-25T06:09:45;4.80;;;3.47;;
20114;SDS011;10218;42.874;25.320;2023-04-25T06:12:12;4.17;;;2.80;;
20114;SDS011;10218;42.874;25.320;2023-04-25T06:14:40;20.90;;;9.53;;
20114;SDS011;10218;42.874;25.320;2023-04-25T06:17:07;18.90;;;8.10;;
20114;SDS011;10218;42.874;25.320;2023-04-25T06:19:35;15.30;;;7.00;;
20114;SDS011;10218;42.874;25.320;2023-04-25T06:22:03;10.17;;;4.60;;
20114;SDS011;10218;42.874;25.320;2023-04-25T06:24:30;9.67;;;4.80;;
20114;SDS011;10218;42.874;25.320;2023-04-25T06:26:57;16.17;;;5.20;;
20114;SDS011;10218;42.874;25.320;2023-04-25T06:29:24;8.00;;;4.40;;
20114;SDS011;10218;42.874;25.320;2023-04-25T06:31:51;7.73;;;4.57;;
20114;SDS011;10218;42.874;25.320;2023-04-25T06:34:19;12.33;;;4.20;;
20114;SDS011;10218;42.874;25.320;2023-04-25T06:36:47;13.50;;;7.17;;
20114;SDS011;10218;42.874;25.320;2023-04-25T06:39:14;19.90;;;9.07;;
20114;SDS011;10218;42.874;25.320;2023-04-25T06:41:41;14.07;;;8.50;;
20114;SDS011;10218;42.874;25.320;2023-04-25T06:44:13;15.23;;;6.47;;
20114;SDS011;10218;42.874;25.320;2023-04-25T06:46:42;14.17;;;5.90;;
20114;SDS011;10218;42.874;25.320;2023-04-25T06:49:12;9.87;;;3.70;;
20114;SDS011;10218;42.874;25.320;2023-04-25T06:51:40;9.00;;;3.10;;
20114;SDS011;10218;42.874;25.320;2023-04-25T06:54:08;8.77;;;3.90;;
20114;SDS011;10218;42.874;25.320;2023-04-25T06:56:35;4.60;;;3.30;;
20114;SDS011;10218;42.874;25.320;2023-04-25T06:59:03;7.77;;;3.93;;
20114;SDS011;10218;42.874;25.320;2023-04-25T07:01:30;8.70;;;3.63;;
20114;SDS011;10218;42.874;25.320;2023-04-25T07:03:57;6.83;;;3.23;;
20114;SDS011;10218;42.874;25.320;2023-04-25T07:06:25;15.43;;;4.63;;
20114;SDS011;10218;42.874;25.320;2023-04-25T07:08:53;7.93;;;3.73;;
20114;SDS011;10218;42.874;25.320;2023-04-25T07:11:22;12.63;;;4.10;;
20114;SDS011;10218;42.874;25.320;2023-04-25T07:13:49;6.30;;;3.00;;
20114;SDS011;10218;42.874;25.320;2023-04-25T07:16:16;6.07;;;3.33;;
20114;SDS011;10218;42.874;25.320;2023-04-25T07:18:45;6.13;;;3.17;;
20114;SDS011;10218;42.874;25.320;2023-04-25T07:21:12;6.73;;;3.87;;
20114;SDS011;10218;42.874;25.320;2023-04-25T07:23:40;8.97;;;3.70;;
20114;SDS011;10218;42.874;25.320;2023-04-25T07:26:08;12.63;;;4.03;;
20114;SDS011;10218;42.874;25.320;2023-04-25T07:28:35;9.90;;;4.07;;
20114;SDS011;10218;42.874;25.320;2023-04-25T07:31:03;8.43;;;4.60;;
20114;SDS011;10218;42.874;25.320;2023-04-25T07:33:31;10.60;;;4.43;;
20114;SDS011;10218;42.874;25.320;2023-04-25T07:35:58;7.60;;;4.50;;
20114;SDS011;10218;42.874;25.320;2023-04-25T07:38:25;3.90;;;2.50;;
20114;SDS011;10218;42.874;25.320;2023-04-25T07:40:54;4.30;;;2.40;;
20114;SDS011;10218;42.874;25.320;2023-04-25T07:43:21;6.40;;;2.70;;
20114;SDS011;10218;42.874;25.320;2023-04-25T07:45:48;8.23;;;2.93;;
20114;SDS011;10218;42.874;25.320;2023-04-25T07:48:17;8.10;;;3.50;;
20114;SDS011;10218;42.874;25.320;2023-04-25T07:50:49;5.43;;;2.90;;
20114;SDS011;10218;42.874;25.320;2023-04-25T07:53:17;6.47;;;2.90;;
20114;SDS011;10218;42.874;25.320;2023-04-25T07:55:45;4.13;;;1.80;;
20114;SDS011;10218;42.874;25.320;2023-04-25T07:58:12;10.87;;;2.90;;
20114;SDS011;10218;42.874;25.320;2023-04-25T08:00:41;4.30;;;2.80;;
20114;SDS011;10218;42.874;25.320;2023-04-25T08:03:10;3.73;;;2.10;;
20114;SDS011;10218;42.874;25.320;2023-04-25T08:05:37;3.63;;;1.70;;
20114;SDS011;10218;42.874;25.320;2023-04-25T08:08:05;5.10;;;2.20;;
20114;SDS011;10218;42.874;25.320;2023-04-25T08:10:33;6.20;;;2.40;;
20114;SDS011;10218;42.874;25.320;2023-04-25T08:13:00;3.17;;;2.27;;
20114;SDS011;10218;42.874;25.320;2023-04-25T08:15:28;5.80;;;2.50;;
20114;SDS011;10218;42.874;25.320;2023-04-25T08:17:56;11.47;;;3.70;;
20114;SDS011;10218;42.874;25.320;2023-04-25T08:20:23;6.83;;;2.30;;
20114;SDS011;10218;42.874;25.320;2023-04-25T08:22:51;5.40;;;2.30;;
20114;SDS011;10218;42.874;25.320;2023-04-25T08:25:19;4.00;;;2.40;;
20114;SDS011;10218;42.874;25.320;2023-04-25T08:27:46;5.90;;;2.60;;
20114;SDS011;10218;42.874;25.320;2023-04-25T08:30:14;5.10;;;2.73;;
20114;SDS011;10218;42.874;25.320;2023-04-25T08:32:43;9.63;;;5.73;;
20114;SDS011;10218;42.874;25.320;2023-04-25T08:35:12;5.00;;;2.43;;
20114;SDS011;10218;42.874;25.320;2023-04-25T08:37:39;4.30;;;1.80;;
20114;SDS011;10218;42.874;25.320;2023-04-25T08:40:08;4.20;;;2.27;;
20114;SDS011;10218;42.874;25.320;2023-04-25T08:42:41;3.93;;;2.13;;
20114;SDS011;10218;42.874;25.320;2023-04-25T08:45:09;4.53;;;2.20;;
20114;SDS011;10218;42.874;25.320;2023-04-25T08:47:37;8.30;;;2.10;;
20114;SDS011;10218;42.874;25.320;2023-04-25T08:50:06;5.17;;;2.07;;
20114;SDS011;10218;42.874;25.320;2023-04-25T08:52:39;3.40;;;2.10;;
20114;SDS011;10218;42.874;25.320;2023-04-25T08:55:12;3.17;;;2.00;;
20114;SDS011;10218;42.874;25.320;2023-04-25T08:57:41;2.27;;;1.80;;
20114;SDS011;10218;42.874;25.320;2023-04-25T09:00:11;2.63;;;2.07;;
20114;SDS011;10218;42.874;25.320;2023-04-25T09:02:39;3.33;;;2.00;;
20114;SDS011;10218;42.874;25.320;2023-04-25T09:05:09;2.87;;;2.07;;
20114;SDS011;10218;42.874;25.320;2023-04-25T09:07:39;4.07;;;2.53;;
20114;SDS011;10218;42.874;25.320;2023-04-25T09:10:06;3.53;;;2.50;;
20114;SDS011;10218;42.874;25.320;2023-04-25T09:12:34;4.37;;;2.07;;
20114;SDS011;10218;42.874;25.320;2023-04-25T09:17:33;4.40;;;2.47;;
20114;SDS011;10218;42.874;25.320;2023-04-25T09:20:08;2.77;;;2.53;;
20114;SDS011;10218;42.874;25.320;2023-04-25T09:22:37;4.90;;;2.30;;
20114;SDS011;10218;42.874;25.320;2023-04-25T09:25:11;3.53;;;1.97;;
20114;SDS011;10218;42.874;25.320;2023-04-25T09:27:52;3.13;;;2.10;;
20114;SDS011;10218;42.874;25.320;2023-04-25T09:30:28;5.77;;;2.10;;
20114;SDS011;10218;42.874;25.320;2023-04-25T09:33:09;9.73;;;2.00;;
20114;SDS011;10218;42.874;25.320;2023-04-25T09:35:38;3.37;;;2.13;;
20114;SDS011;10218;42.874;25.320;2023-04-25T09:38:11;3.70;;;2.27;;
20114;SDS011;10218;42.874;25.320;2023-04-25T09:40:45;5.20;;;3.07;;
20114;SDS011;10218;42.874;25.320;2023-04-25T09:43:20;5.93;;;2.30;;
20114;SDS011;10218;42.874;25.320;2023-04-25T09:45:51;10.27;;;7.63;;
20114;SDS011;10218;42.874;25.320;2023-04-25T09:48:25;13.40;;;8.77;;
20114;SDS011;10218;42.874;25.320;2023-04-25T09:53:30;5.47;;;2.93;;
20114;SDS011;10218;42.874;25.320;2023-04-25T09:55:59;3.50;;;2.53;;
20114;SDS011;10218;42.874;25.320;2023-04-25T09:58:28;2.83;;;2.00;;
20114;SDS011;10218;42.874;25.320;2023-04-25T10:00:59;4.57;;;3.13;;
20114;SDS011;10218;42.874;25.320;2023-04-25T10:03:30;4.13;;;2.93;;
20114;SDS011;10218;42.874;25.320;2023-04-25T10:06:00;4.00;;;2.20;;
20114;SDS011;10218;42.874;25.320;2023-04-25T10:08:34;2.03;;;1.70;;
20114;SDS011;10218;42.874;25.320;2023-04-25T10:11:03;5.77;;;3.37;;
20114;SDS011;10218;42.874;25.320;2023-04-25T10:13:32;3.03;;;1.77;;
20114;SDS011;10218;42.874;25.320;2023-04-25T10:16:01;4.90;;;2.47;;
20114;SDS011;10218;42.874;25.320;2023-04-25T10:18:30;3.50;;;2.17;;
20114;SDS011;10218;42.874;25.320;2023-04-25T10:20:59;2.70;;;2.00;;
20114;SDS011;10218;42.874;25.320;2023-04-25T10:23:30;7.50;;;2.60;;
20114;SDS011;10218;42.874;25.320;2023-04-25T10:25:59;3.13;;;2.30;;
20114;SDS011;10218;42.874;25.320;2023-04-25T10:28:27;4.70;;;2.43;;
20114;SDS011;10218;42.874;25.320;2023-04-25T10:30:58;5.27;;;3.93;;
20114;SDS011;10218;42.874;25.320;2023-04-25T10:33:32;7.67;;;4.97;;
20114;SDS011;10218;42.874;25.320;2023-04-25T10:38:37;5.40;;;2.60;;
20114;SDS011;10218;42.874;25.320;2023-04-25T10:41:05;2.87;;;2.20;;
20114;SDS011;10218;42.874;25.320;2023-04-25T10:43:40;5.00;;;2.03;;
20114;SDS011;10218;42.874;25.320;2023-04-25T10:46:16;9.20;;;3.47;;
20114;SDS011;10218;42.874;25.320;2023-04-25T10:48:49;5.87;;;3.20;;
20114;SDS011;10218;42.874;25.320;2023-04-25T10:51:18;9.80;;;4.93;;
20114;SDS011;10218;42.874;25.320;2023-04-25T10:54:01;9.13;;;3.83;;
20114;SDS011;10218;42.874;25.320;2023-04-25T10:59:11;6.83;;;3.20;;
20114;SDS011;10218;42.874;25.320;2023-04-25T11:01:45;6.20;;;3.53;;
20114;SDS011;10218;42.874;25.320;2023-04-25T11:04:25;9.80;;;5.20;;
20114;SDS011;10218;42.874;25.320;2023-04-25T11:09:49;4.43;;;2.93;;
20114;SDS011;10218;42.874;25.320;2023-04-25T11:12:16;3.80;;;2.40;;
20114;SDS011;10218;42.874;25.320;2023-04-25T11:14:44;3.67;;;2.40;;
20114;SDS011;10218;42.874;25.320;2023-04-25T11:17:11;4.17;;;2.33;;
20114;SDS011;10218;42.874;25.320;2023-04-25T11:19:38;5.20;;;2.27;;
20114;SDS011;10218;42.874;25.320;2023-04-25T11:22:05;1.80;;;1.70;;
20114;SDS011;10218;42.874;25.320;2023-04-25T11:24:34;4.83;;;2.17;;
20114;SDS011;10218;42.874;25.320;2023-04-25T11:27:02;2.20;;;1.60;;
20114;SDS011;10218;42.874;25.320;2023-04-25T11:29:30;5.20;;;2.07;;
20114;SDS011;10218;42.874;25.320;2023-04-25T11:31:59;3.23;;;1.80;;
20114;SDS011;10218;42.874;25.320;2023-04-25T11:34:31;1.93;;;1.63;;
20114;SDS011;10218;42.874;25.320;2023-04-25T11:37:02;4.53;;;1.90;;
20114;SDS011;10218;42.874;25.320;2023-04-25T11:39:30;4.97;;;2.70;;
20114;SDS011;10218;42.874;25.320;2023-04-25T11:41:57;3.00;;;2.70;;
20114;SDS011;10218;42.874;25.320;2023-04-25T11:44:25;11.30;;;3.00;;
20114;SDS011;10218;42.874;25.320;2023-04-25T11:46:52;6.03;;;3.43;;
20114;SDS011;10218;42.874;25.320;2023-04-25T11:49:19;3.57;;;2.70;;
20114;SDS011;10218;42.874;25.320;2023-04-25T11:51:48;3.30;;;2.30;;
20114;SDS011;10218;42.874;25.320;2023-04-25T11:54:15;8.90;;;3.07;;
20114;SDS011;10218;42.874;25.320;2023-04-25T11:56:43;4.50;;;2.40;;
20114;SDS011;10218;42.874;25.320;2023-04-25T11:59:13;3.20;;;2.47;;
20114;SDS011;10218;42.874;25.320;2023-04-25T12:01:41;4.87;;;2.50;;
20114;SDS011;10218;42.874;25.320;2023-04-25T12:04:22;5.17;;;2.50;;
20114;SDS011;10218;42.874;25.320;2023-04-25T12:06:52;4.10;;;2.47;;
20114;SDS011;10218;42.874;25.320;2023-04-25T12:09:21;4.73;;;2.97;;
20114;SDS011;10218;42.874;25.320;2023-04-25T12:11:55;4.07;;;1.60;;
20114;SDS011;10218;42.874;25.320;2023-04-25T12:14:25;3.70;;;1.80;;
20114;SDS011;10218;42.874;25.320;2023-04-25T12:17:01;1.80;;;1.70;;
20114;SDS011;10218;42.874;25.320;2023-04-25T12:19:31;2.50;;;1.50;;
20114;SDS011;10218;42.874;25.320;2023-04-25T12:22:02;3.80;;;1.60;;
20114;SDS011;10218;42.874;25.320;2023-04-25T12:24:33;2.47;;;1.60;;
20114;SDS011;10218;42.874;25.320;2023-04-25T12:27:02;4.93;;;2.30;;
20114;SDS011;10218;42.874;25.320;2023-04-25T12:29:32;7.30;;;2.60;;
20114;SDS011;10218;42.874;25.320;2023-04-25T12:32:07;3.60;;;2.50;;
20114;SDS011;10218;42.874;25.320;2023-04-25T12:34:35;4.37;;;2.93;;
20114;SDS011;10218;42.874;25.320;2023-04-25T12:37:02;5.90;;;2.90;;
20114;SDS011;10218;42.874;25.320;2023-04-25T12:39:29;5.17;;;3.10;;
20114;SDS011;10218;42.874;25.320;2023-04-25T12:41:57;4.83;;;3.30;;
20114;SDS011;10218;42.874;25.320;2023-04-25T12:44:24;11.40;;;3.90;;
20114;SDS011;10218;42.874;25.320;2023-04-25T12:46:51;8.33;;;3.83;;
20114;SDS011;10218;42.874;25.320;2023-04-25T12:49:19;8.73;;;4.20;;
20114;SDS011;10218;42.874;25.320;2023-04-25T12:51:46;8.00;;;4.50;;
20114;SDS011;10218;42.874;25.320;2023-04-25T12:54:14;11.80;;;4.37;;
20114;SDS011;10218;42.874;25.320;2023-04-25T12:56:41;5.80;;;3.93;;
20114;SDS011;10218;42.874;25.320;2023-04-25T12:59:08;8.17;;;4.10;;
20114;SDS011;10218;42.874;25.320;2023-04-25T13:01:35;4.63;;;3.47;;
20114;SDS011;10218;42.874;25.320;2023-04-25T13:04:03;10.70;;;3.67;;
20114;SDS011;10218;42.874;25.320;2023-04-25T13:06:30;9.50;;;3.60;;
20114;SDS011;10218;42.874;25.320;2023-04-25T13:08:57;3.80;;;3.40;;
20114;SDS011;10218;42.874;25.320;2023-04-25T13:11:25;7.93;;;3.13;;
20114;SDS011;10218;42.874;25.320;2023-04-25T13:13:52;7.07;;;3.67;;
20114;SDS011;10218;42.874;25.320;2023-04-25T13:16:19;8.40;;;4.43;;
20114;SDS011;10218;42.874;25.320;2023-04-25T13:18:47;6.80;;;4.30;;
20114;SDS011;10218;42.874;25.320;2023-04-25T13:21:15;5.87;;;3.97;;
20114;SDS011;10218;42.874;25.320;2023-04-25T13:23:42;6.23;;;3.57;;
20114;SDS011;10218;42.874;25.320;2023-04-25T13:26:13;6.47;;;3.97;;
20114;SDS011;10218;42.874;25.320;2023-04-25T13:28:40;4.83;;;3.63;;
20114;SDS011;10218;42.874;25.320;2023-04-25T13:31:08;4.37;;;3.73;;
20114;SDS011;10218;42.874;25.320;2023-04-25T13:33:35;5.00;;;3.60;;
20114;SDS011;10218;42.874;25.320;2023-04-25T13:36:02;5.73;;;3.50;;
20114;SDS011;10218;42.874;25.320;2023-04-25T13:38:29;4.77;;;3.00;;
20114;SDS011;10218;42.874;25.320;2023-04-25T13:40:57;8.77;;;2.73;;
20114;SDS011;10218;42.874;25.320;2023-04-25T13:43:24;3.17;;;2.83;;
20114;SDS011;10218;42.874;25.320;2023-04-25T13:45:51;4.20;;;2.40;;
20114;SDS011;10218;42.874;25.320;2023-04-25T13:48:18;4.73;;;2.90;;
20114;SDS011;10218;42.874;25.320;2023-04-25T13:50:46;4.60;;;2.90;;
20114;SDS011;10218;42.874;25.320;2023-04-25T13:53:13;3.90;;;2.80;;
20114;SDS011;10218;42.874;25.320;2023-04-25T13:55:40;3.60;;;3.00;;
20114;SDS011;10218;42.874;25.320;2023-04-25T13:58:07;5.33;;;3.87;;
20114;SDS011;10218;42.874;25.320;2023-04-25T14:00:36;6.80;;;2.93;;
20114;SDS011;10218;42.874;25.320;2023-04-25T14:03:06;3.13;;;2.73;;
20114;SDS011;10218;42.874;25.320;2023-04-25T14:05:36;4.97;;;3.30;;
20114;SDS011;10218;42.874;25.320;2023-04-25T14:08:07;6.50;;;3.70;;
20114;SDS011;10218;42.874;25.320;2023-04-25T14:10:36;6.23;;;3.30;;
20114;SDS011;10218;42.874;25.320;2023-04-25T14:13:04;5.33;;;3.40;;
20114;SDS011;10218;42.874;25.320;2023-04-25T14:15:32;5.00;;;3.90;;
20114;SDS011;10218;42.874;25.320;2023-04-25T14:18:00;7.30;;;4.30;;
20114;SDS011;10218;42.874;25.320;2023-04-25T14:20:28;3.63;;;2.60;;
20114;SDS011;10218;42.874;25.320;2023-04-25T14:22:55;4.43;;;2.23;;
20114;SDS011;10218;42.874;25.320;2023-04-25T14:25:24;2.37;;;1.67;;
20114;SDS011;10218;42.874;25.320;2023-04-25T14:27:51;6.13;;;1.87;;
20114;SDS011;10218;42.874;25.320;2023-04-25T14:30:19;3.13;;;2.53;;
20114;SDS011;10218;42.874;25.320;2023-04-25T14:32:48;4.90;;;2.47;;
20114;SDS011;10218;42.874;25.320;2023-04-25T14:35:16;3.57;;;1.73;;
20114;SDS011;10218;42.874;25.320;2023-04-25T14:37:43;4.90;;;1.80;;
20114;SDS011;10218;42.874;25.320;2023-04-25T14:40:11;3.53;;;2.30;;
20114;SDS011;10218;42.874;25.320;2023-04-25T14:42:39;5.63;;;2.00;;
20114;SDS011;10218;42.874;25.320;2023-04-25T14:45:07;4.10;;;1.90;;
20114;SDS011;10218;42.874;25.320;2023-04-25T14:47:38;4.17;;;2.37;;
20114;SDS011;10218;42.874;25.320;2023-04-25T14:50:06;4.00;;;1.90;;